createdAt,value
2023-05-22T00:00:04.186Z,101427.63
2023-05-22T00:02:30.847Z,101425.09
2023-05-22T00:04:59.079Z,101425.25
2023-05-22T00:07:25.659Z,101426.31
2023-05-22T00:09:52.234Z,101417.44
2023-05-22T00:12:18.793Z,101425.03
2023-05-22T00:14:45.478Z,101423.75
2023-05-22T00:17:12.079Z,101419.28
2023-05-22T00:19:38.747Z,101413.16
2023-05-22T00:22:06.868Z,101412.50
2023-05-22T00:24:33.430Z,101415.47
2023-05-22T00:27:00.065Z,101412.94
2023-05-22T00:29:26.769Z,101417.81
2023-05-22T00:31:53.344Z,101412.69
2023-05-22T00:34:20.023Z,101407.59
2023-05-22T00:36:46.777Z,101405.06
2023-05-22T00:39:14.720Z,101400.81
2023-05-22T00:41:41.330Z,101397.41
2023-05-22T00:44:08.009Z,101403.16
2023-05-22T00:46:35.038Z,101404.19
2023-05-22T00:49:01.741Z,101396.97
2023-05-22T00:51:28.453Z,101398.25
2023-05-22T00:53:55.571Z,101394.00
2023-05-22T00:56:24.187Z,101394.41
2023-05-22T00:58:50.889Z,101391.84
2023-05-22T01:01:17.628Z,101390.56
2023-05-22T01:03:45.673Z,101395.44
2023-05-22T01:06:13.414Z,101391.00
2023-05-22T01:08:40.739Z,101396.91
2023-05-22T01:11:14.463Z,101401.94
2023-05-22T01:13:51.671Z,101401.50
2023-05-22T01:16:24.835Z,101394.53
2023-05-22T01:18:59.180Z,101398.50
2023-05-22T01:21:35.682Z,101403.38
2023-05-22T01:24:32.986Z,101394.47
2023-05-22T01:27:29.566Z,101393.19
2023-05-22T01:30:12.525Z,101390.00
2023-05-22T01:32:43.057Z,101389.56
2023-05-22T01:35:11.211Z,101394.78
2023-05-22T01:37:38.924Z,101395.38
2023-05-22T01:40:07.482Z,101396.66
2023-05-22T01:42:34.836Z,101391.53
2023-05-22T01:45:01.510Z,101392.13
2023-05-22T01:47:28.203Z,101397.84
2023-05-22T01:49:56.160Z,101394.84
2023-05-22T01:52:30.911Z,101399.06
2023-05-22T01:55:00.693Z,101396.72
2023-05-22T01:57:32.438Z,101400.66
2023-05-22T02:00:06.641Z,101393.84
2023-05-22T02:02:36.376Z,101394.66
2023-05-22T02:05:06.220Z,101397.13
2023-05-22T02:07:36.528Z,101400.69
2023-05-22T02:10:04.432Z,101402.31
2023-05-22T02:12:31.316Z,101399.50
2023-05-22T02:14:58.044Z,101403.69
2023-05-22T02:17:24.664Z,101398.16
2023-05-22T02:19:51.278Z,101394.25
2023-05-22T02:22:19.212Z,101396.72
2023-05-22T02:24:48.362Z,101397.91
2023-05-22T02:27:14.931Z,101396.59
2023-05-22T02:29:41.636Z,101398.25
2023-05-22T02:32:08.401Z,101388.88
2023-05-22T02:34:34.960Z,101396.66
2023-05-22T02:37:01.687Z,101385.19
2023-05-22T02:39:29.734Z,101396.75
2023-05-22T02:41:56.311Z,101387.44
2023-05-22T02:44:22.911Z,101392.63
2023-05-22T02:46:49.569Z,101386.88
2023-05-22T02:49:16.170Z,101384.72
2023-05-22T02:51:42.719Z,101381.50
2023-05-22T02:54:09.275Z,101380.19
2023-05-22T02:56:37.191Z,101379.06
2023-05-22T02:59:03.731Z,101377.75
2023-05-22T03:01:30.348Z,101372.44
2023-05-22T03:03:57.096Z,101372.84
2023-05-22T03:06:23.806Z,101376.97
2023-05-22T03:08:50.365Z,101377.16
2023-05-22T03:11:16.953Z,101380.97
2023-05-22T03:13:45.035Z,101371.88
2023-05-22T03:16:11.656Z,101372.91
2023-05-22T03:18:38.269Z,101372.06
2023-05-22T03:21:05.210Z,101366.75
2023-05-22T03:23:32.079Z,101365.94
2023-05-22T03:25:58.685Z,101358.75
2023-05-22T03:28:25.382Z,101363.84
2023-05-22T03:30:53.411Z,101361.28
2023-05-22T03:33:20.022Z,101359.59
2023-05-22T03:35:46.645Z,101356.47
2023-05-22T03:38:13.430Z,101360.69
2023-05-22T03:40:40.196Z,101352.31
2023-05-22T03:43:06.979Z,101353.16
2023-05-22T03:45:33.726Z,101358.50
2023-05-22T03:48:02.004Z,101354.50
2023-05-22T03:50:28.632Z,101366.97
2023-05-22T03:52:55.262Z,101357.97
2023-05-22T03:55:21.830Z,101358.53
2023-05-22T03:57:48.413Z,101357.84
2023-05-22T04:00:15.979Z,101363.06
2023-05-22T04:02:42.681Z,101358.19
2023-05-22T04:05:10.791Z,101353.38
2023-05-22T04:07:37.441Z,101352.34
2023-05-22T04:10:04.542Z,101350.03
2023-05-22T04:12:31.211Z,101348.63
2023-05-22T04:14:57.812Z,101345.22
2023-05-22T04:17:26.176Z,101351.44
2023-05-22T04:19:52.758Z,101355.69
2023-05-22T04:22:20.746Z,101349.31
2023-05-22T04:24:47.347Z,101351.63
2023-05-22T04:27:14.029Z,101357.88
2023-05-22T04:29:40.626Z,101365.25
2023-05-22T04:32:07.817Z,101359.25
2023-05-22T04:34:34.405Z,101357.94
2023-05-22T04:37:00.952Z,101361.47
2023-05-22T04:39:28.955Z,101358.72
2023-05-22T04:41:55.586Z,101358.28
2023-05-22T04:44:22.189Z,101362.22
2023-05-22T04:46:49.106Z,101354.81
2023-05-22T04:49:15.773Z,101351.84
2023-05-22T04:51:42.372Z,101358.63
2023-05-22T04:54:08.947Z,101352.50
2023-05-22T04:56:37.508Z,101343.34
2023-05-22T04:59:04.358Z,101351.59
2023-05-22T05:01:33.083Z,101352.22
2023-05-22T05:04:00.710Z,101338.69
2023-05-22T05:06:27.510Z,101341.25
2023-05-22T05:08:54.137Z,101342.06
2023-05-22T05:11:20.773Z,101344.19
2023-05-22T05:13:48.725Z,101335.28
2023-05-22T05:16:15.371Z,101341.25
2023-05-22T05:18:42.038Z,101343.13
2023-05-22T05:21:09.090Z,101339.09
2023-05-22T05:23:35.639Z,101338.88
2023-05-22T05:26:02.280Z,101343.75
2023-05-22T05:28:29.153Z,101347.19
2023-05-22T05:30:57.087Z,101347.63
2023-05-22T05:33:23.678Z,101347.72
2023-05-22T05:35:50.259Z,101343.09
2023-05-22T05:38:16.867Z,101350.31
2023-05-22T05:40:43.493Z,101360.97
2023-05-22T05:43:10.328Z,101356.16
2023-05-22T05:45:37.040Z,101358.94
2023-05-22T05:48:08.213Z,101369.75
2023-05-22T05:50:35.053Z,101359.81
2023-05-22T05:53:01.878Z,101365.75
2023-05-22T05:55:28.427Z,101360.50
2023-05-22T05:57:55.125Z,101362.00
2023-05-22T06:00:21.762Z,101356.94
2023-05-22T06:02:50.518Z,101360.72
2023-05-22T06:05:18.936Z,101352.69
2023-05-22T06:07:45.681Z,101358.41
2023-05-22T06:10:13.048Z,101356.06
2023-05-22T06:12:39.911Z,101356.06
2023-05-22T06:15:07.519Z,101348.47
2023-05-22T06:17:34.312Z,101352.72
2023-05-22T06:20:01.178Z,101345.72
2023-05-22T06:22:29.309Z,101355.06
2023-05-22T06:24:55.950Z,101353.13
2023-05-22T06:27:23.204Z,101345.31
2023-05-22T06:29:50.359Z,101347.22
2023-05-22T06:32:17.355Z,101339.78
2023-05-22T06:34:47.290Z,101343.19
2023-05-22T06:37:13.915Z,101340.44
2023-05-22T06:39:41.891Z,101343.81
2023-05-22T06:42:08.529Z,101339.16
2023-05-22T06:44:35.125Z,101341.47
2023-05-22T06:47:01.848Z,101337.03
2023-05-22T06:49:28.428Z,101336.19
2023-05-22T06:51:55.130Z,101339.75
2023-05-22T06:54:21.754Z,101329.78
2023-05-22T06:56:49.722Z,101336.16
2023-05-22T06:59:16.331Z,101338.03
2023-05-22T07:01:42.917Z,101327.19
2023-05-22T07:04:09.774Z,101332.84
2023-05-22T07:06:36.365Z,101335.16
2023-05-22T07:09:03.067Z,101344.94
2023-05-22T07:11:29.695Z,101333.88
2023-05-22T07:13:57.745Z,101341.03
2023-05-22T07:16:25.640Z,101336.00
2023-05-22T07:18:52.280Z,101341.09
2023-05-22T07:21:18.976Z,101336.22
2023-05-22T07:23:45.542Z,101336.41
2023-05-22T07:26:12.369Z,101331.28
2023-05-22T07:28:38.982Z,101334.03
2023-05-22T07:31:07.016Z,101325.22
2023-05-22T07:33:33.676Z,101328.72
2023-05-22T07:36:00.269Z,101329.03
2023-05-22T07:38:26.909Z,101320.06
2023-05-22T07:40:53.467Z,101327.69
2023-05-22T07:43:20.041Z,101323.59
2023-05-22T07:45:46.640Z,101325.22
2023-05-22T07:48:14.703Z,101327.69
2023-05-22T07:50:41.284Z,101323.38
2023-05-22T07:53:07.971Z,101319.53
2023-05-22T07:55:34.521Z,101315.03
2023-05-22T07:58:01.106Z,101315.34
2023-05-22T08:00:27.689Z,101316.06
2023-05-22T08:02:54.585Z,101309.13
2023-05-22T08:05:22.738Z,101320.28
2023-05-22T08:07:49.453Z,101314.88
2023-05-22T08:10:17.738Z,101316.72
2023-05-22T08:12:44.709Z,101312.75
2023-05-22T08:15:11.857Z,101312.13
2023-05-22T08:17:38.902Z,101313.06
2023-05-22T08:20:07.312Z,101310.34
2023-05-22T08:22:35.494Z,101312.06
2023-05-22T08:25:03.669Z,101312.59
2023-05-22T08:27:30.403Z,101309.66
2023-05-22T08:29:56.985Z,101318.84
2023-05-22T08:32:23.595Z,101304.31
2023-05-22T08:34:50.283Z,101311.47
2023-05-22T08:37:17.087Z,101309.59
2023-05-22T08:39:45.169Z,101297.97
2023-05-22T08:42:11.806Z,101295.69
2023-05-22T08:44:39.149Z,101300.91
2023-05-22T08:47:07.124Z,101293.78
2023-05-22T08:49:34.130Z,101295.72
2023-05-22T08:52:07.727Z,101293.31
2023-05-22T08:54:36.762Z,101292.97
2023-05-22T08:57:05.846Z,101285.91
2023-05-22T08:59:34.469Z,101288.06
2023-05-22T09:02:01.990Z,101279.88
2023-05-22T09:04:29.460Z,101271.94
2023-05-22T09:06:56.109Z,101275.75
2023-05-22T09:09:22.959Z,101272.97
2023-05-22T09:11:49.752Z,101267.94
2023-05-22T09:14:18.697Z,101266.38
2023-05-22T09:16:46.217Z,101262.28
2023-05-22T09:19:13.309Z,101273.25
2023-05-22T09:21:39.997Z,101273.72
2023-05-22T09:24:08.095Z,101261.19
2023-05-22T09:26:34.739Z,101270.94
2023-05-22T09:29:01.688Z,101256.09
2023-05-22T09:31:29.984Z,101252.22
2023-05-22T09:33:57.841Z,101250.75
2023-05-22T09:36:31.151Z,101252.44
2023-05-22T09:38:59.558Z,101244.50
2023-05-22T09:41:26.187Z,101247.84
2023-05-22T09:43:52.851Z,101250.41
2023-05-22T09:46:19.506Z,101251.94
2023-05-22T09:48:51.429Z,101254.25
2023-05-22T09:51:19.378Z,101250.84
2023-05-22T09:53:48.751Z,101255.53
2023-05-22T09:56:24.239Z,101249.09
2023-05-22T09:58:54.270Z,101243.63
2023-05-22T10:01:22.383Z,101243.13
2023-05-22T10:03:54.266Z,101239.28
2023-05-22T10:06:22.467Z,101247.94
2023-05-22T10:08:54.346Z,101239.28
2023-05-22T10:11:21.966Z,101235.97
2023-05-22T10:13:49.860Z,101248.88
2023-05-22T10:16:16.848Z,101233.41
2023-05-22T10:18:45.983Z,101234.72
2023-05-22T10:21:17.314Z,101234.91
2023-05-22T10:23:44.249Z,101233.88
2023-05-22T10:26:11.355Z,101235.66
2023-05-22T10:28:42.640Z,101233.78
2023-05-22T10:31:19.190Z,101222.19
2023-05-22T10:33:51.458Z,101229.09
2023-05-22T10:36:37.122Z,101227.34
2023-05-22T10:39:16.362Z,101224.66
2023-05-22T10:41:42.995Z,101216.31
2023-05-22T10:44:09.887Z,101206.28
2023-05-22T10:46:36.636Z,101210.31
2023-05-22T10:49:03.648Z,101201.63
2023-05-22T10:51:32.765Z,101206.50
2023-05-22T10:54:00.627Z,101201.19
2023-05-22T10:56:39.014Z,101202.47
2023-05-22T10:59:15.323Z,101196.66
2023-05-22T11:02:00.340Z,101196.00
2023-05-22T11:04:27.056Z,101195.81
2023-05-22T11:07:04.570Z,101184.69
2023-05-22T11:09:35.364Z,101185.19
2023-05-22T11:12:19.103Z,101191.84
2023-05-22T11:14:55.418Z,101193.44
2023-05-22T11:17:23.615Z,101189.41
2023-05-22T11:20:07.269Z,101187.97
2023-05-22T11:22:38.720Z,101183.84
2023-05-22T11:25:08.678Z,101179.13
2023-05-22T11:27:36.183Z,101174.06
2023-05-22T11:30:04.136Z,101173.38
2023-05-22T11:32:35.137Z,101171.59
2023-05-22T11:35:02.207Z,101170.09
2023-05-22T11:37:29.191Z,101166.91
2023-05-22T11:40:02.448Z,101163.88
2023-05-22T11:42:30.248Z,101162.72
2023-05-22T11:44:59.960Z,101155.31
2023-05-22T11:47:37.186Z,101153.69
2023-05-22T11:50:07.788Z,101149.81
2023-05-22T11:52:38.161Z,101143.84
2023-05-22T11:55:07.795Z,101142.84
2023-05-22T11:57:35.457Z,101145.94
2023-05-22T12:00:13.350Z,101141.75
2023-05-22T12:02:45.517Z,101134.69
2023-05-22T12:05:13.072Z,101140.66
2023-05-22T12:07:39.982Z,101143.72
2023-05-22T12:10:14.655Z,101141.66
2023-05-22T12:12:43.250Z,101131.31
2023-05-22T12:15:10.581Z,101134.47
2023-05-22T12:17:38.015Z,101126.28
2023-05-22T12:20:05.455Z,101121.75
2023-05-22T12:22:32.481Z,101128.81
2023-05-22T12:24:59.515Z,101129.78
2023-05-22T12:27:31.638Z,101124.03
2023-05-22T12:29:59.495Z,101116.94
2023-05-22T12:32:29.656Z,101119.84
2023-05-22T12:37:48.327Z,101108.25
2023-05-22T12:40:15.088Z,101114.44
2023-05-22T12:42:43.255Z,101113.13
2023-05-22T12:45:11.246Z,101105.03
2023-05-22T12:47:37.998Z,101109.81
2023-05-22T12:50:06.263Z,101100.59
2023-05-22T12:52:32.840Z,101107.31
2023-05-22T12:54:59.412Z,101110.97
2023-05-22T12:57:26.068Z,101110.69
2023-05-22T12:59:54.073Z,101110.09
2023-05-22T13:02:20.738Z,101116.00
2023-05-22T13:04:47.458Z,101112.31
2023-05-22T13:07:16.932Z,101105.03
2023-05-22T13:09:46.227Z,101096.94
2023-05-22T13:12:15.265Z,101094.44
2023-05-22T13:14:44.572Z,101092.19
2023-05-22T13:17:12.650Z,101092.75
2023-05-22T13:19:44.503Z,101089.44
2023-05-22T13:22:11.189Z,101080.00
2023-05-22T13:24:38.283Z,101086.97
2023-05-22T13:27:05.260Z,101083.34
2023-05-22T13:29:32.451Z,101082.84
2023-05-22T13:31:59.314Z,101081.41
2023-05-22T13:34:28.658Z,101078.00
2023-05-22T13:36:55.492Z,101077.22
2023-05-22T13:39:22.329Z,101071.88
2023-05-22T13:41:49.051Z,101074.72
2023-05-22T13:44:15.672Z,101077.25
2023-05-22T13:46:42.677Z,101068.03
2023-05-22T13:49:09.489Z,101068.81
2023-05-22T13:51:37.484Z,101060.44
2023-05-22T13:54:04.957Z,101062.41
2023-05-22T13:56:34.709Z,101063.53
2023-05-22T13:59:09.188Z,101067.44
2023-05-22T14:01:36.308Z,101069.06
2023-05-22T14:04:03.275Z,101052.84
2023-05-22T14:06:33.161Z,101058.19
2023-05-22T14:09:02.566Z,101055.66
2023-05-22T14:11:29.234Z,101056.81
2023-05-22T14:13:55.845Z,101052.38
2023-05-22T14:16:29.013Z,101053.75
2023-05-22T14:18:55.722Z,101041.47
2023-05-22T14:21:22.431Z,101038.69
2023-05-22T14:23:48.966Z,101049.84
2023-05-22T14:26:17.018Z,101038.06
2023-05-22T14:28:43.800Z,101045.34
2023-05-22T14:31:10.497Z,101031.38
2023-05-22T14:33:37.160Z,101034.75
2023-05-22T14:36:04.133Z,101028.63
2023-05-22T14:38:32.208Z,101024.44
2023-05-22T14:40:58.862Z,101026.91
2023-05-22T14:43:27.086Z,101031.66
2023-05-22T14:45:54.545Z,101024.13
2023-05-22T14:48:21.174Z,101026.91
2023-05-22T14:50:47.869Z,101015.47
2023-05-22T14:53:14.652Z,101017.44
2023-05-22T14:55:41.634Z,101013.25
2023-05-22T14:58:08.368Z,101011.84
2023-05-22T15:00:36.345Z,101007.34
2023-05-22T15:03:03.597Z,101000.66
2023-05-22T15:05:30.403Z,101005.13
2023-05-22T15:07:57.229Z,101001.75
2023-05-22T15:10:24.090Z,100998.13
2023-05-22T15:12:50.780Z,100994.75
2023-05-22T15:15:17.708Z,100981.09
2023-05-22T15:17:45.861Z,100985.00
2023-05-22T15:20:12.941Z,100984.72
2023-05-22T15:22:39.714Z,100974.66
2023-05-22T15:25:08.395Z,100984.19
2023-05-22T15:27:35.743Z,100972.13
2023-05-22T15:30:03.365Z,100973.84
2023-05-22T15:32:31.973Z,100968.25
2023-05-22T15:34:59.966Z,100975.78
2023-05-22T15:37:26.983Z,100963.75
2023-05-22T15:39:53.595Z,100957.06
2023-05-22T15:42:20.254Z,100956.78
2023-05-22T15:44:46.841Z,100949.22
2023-05-22T15:47:13.486Z,100948.66
2023-05-22T15:49:40.214Z,100949.78
2023-05-22T15:52:08.218Z,100955.88
2023-05-22T15:54:34.786Z,100941.91
2023-05-22T15:57:01.366Z,100946.38
2023-05-22T15:59:27.902Z,100942.97
2023-05-22T16:01:54.651Z,100939.34
2023-05-22T16:04:21.271Z,100936.25
2023-05-22T16:06:47.858Z,100933.44
2023-05-22T16:09:16.050Z,100937.28
2023-05-22T16:11:42.632Z,100930.84
2023-05-22T16:14:09.325Z,100937.75
2023-05-22T16:16:35.948Z,100938.25
2023-05-22T16:19:02.628Z,100937.41
2023-05-22T16:21:29.226Z,100935.91
2023-05-22T16:23:55.840Z,100930.84
2023-05-22T16:26:23.817Z,100938.63
2023-05-22T16:28:50.399Z,100939.97
2023-05-22T16:31:18.980Z,100935.16
2023-05-22T16:33:45.892Z,100930.94
2023-05-22T16:36:12.494Z,100934.25
2023-05-22T16:38:39.148Z,100941.78
2023-05-22T16:41:05.786Z,100934.25
2023-05-22T16:43:33.798Z,100920.88
2023-05-22T16:46:00.368Z,100933.38
2023-05-22T16:48:27.052Z,100942.84
2023-05-22T16:50:53.635Z,100928.31
2023-05-22T16:53:20.280Z,100932.47
2023-05-22T16:55:46.922Z,100929.38
2023-05-22T16:58:13.532Z,100935.56
2023-05-22T17:00:41.853Z,100933.38
2023-05-22T17:03:09.334Z,100931.69
2023-05-22T17:05:37.345Z,100930.78
2023-05-22T17:08:04.232Z,100930.47
2023-05-22T17:10:30.820Z,100935.19
2023-05-22T17:12:57.501Z,100940.97
2023-05-22T17:15:24.081Z,100934.47
2023-05-22T17:17:52.276Z,100929.66
2023-05-22T17:20:20.695Z,100932.91
2023-05-22T17:22:47.242Z,100938.13
2023-05-22T17:25:14.006Z,100937.44
2023-05-22T17:27:40.741Z,100932.56
2023-05-22T17:30:08.332Z,100925.78
2023-05-22T17:32:35.131Z,100920.69
2023-05-22T17:35:03.522Z,100927.56
2023-05-22T17:37:30.099Z,100928.53
2023-05-22T17:39:56.768Z,100923.13
2023-05-22T17:42:23.395Z,100927.44
2023-05-22T17:44:50.055Z,100919.00
2023-05-22T17:47:16.783Z,100924.25
2023-05-22T17:49:43.436Z,100927.78
2023-05-22T17:52:11.507Z,100929.91
2023-05-22T17:54:38.059Z,100926.13
2023-05-22T17:57:04.804Z,100921.88
2023-05-22T17:59:32.645Z,100918.19
2023-05-22T18:01:59.518Z,100915.06
2023-05-22T18:04:26.270Z,100923.59
2023-05-22T18:06:53.105Z,100925.13
2023-05-22T18:09:21.246Z,100920.53
2023-05-22T18:11:47.911Z,100918.75
2023-05-22T18:14:14.673Z,100918.34
2023-05-22T18:16:41.281Z,100916.84
2023-05-22T18:19:07.924Z,100921.97
2023-05-22T18:21:34.770Z,100917.91
2023-05-22T18:24:01.431Z,100918.56
2023-05-22T18:26:29.519Z,100920.66
2023-05-22T18:28:56.151Z,100923.59
2023-05-22T18:31:22.741Z,100909.25
2023-05-22T18:33:49.309Z,100908.00
2023-05-22T18:36:15.915Z,100913.09
2023-05-22T18:38:42.621Z,100907.34
2023-05-22T18:41:09.252Z,100903.50
2023-05-22T18:43:37.207Z,100906.09
2023-05-22T18:46:04.297Z,100912.25
2023-05-22T18:48:30.908Z,100899.72
2023-05-22T18:50:57.961Z,100905.66
2023-05-22T18:53:24.850Z,100917.59
2023-05-22T18:55:51.448Z,100912.41
2023-05-22T18:58:18.047Z,100922.13
2023-05-22T19:00:46.046Z,100915.31
2023-05-22T19:03:12.691Z,100926.72
2023-05-22T19:05:39.617Z,100922.63
2023-05-22T19:08:06.320Z,100928.72
2023-05-22T19:10:33.227Z,100922.72
2023-05-22T19:12:59.965Z,100919.69
2023-05-22T19:15:26.717Z,100937.69
2023-05-22T19:17:54.898Z,100945.47
2023-05-22T19:20:22.585Z,100936.06
2023-05-22T19:22:49.162Z,100945.28
2023-05-22T19:25:15.724Z,100937.31
2023-05-22T19:27:42.350Z,100947.84
2023-05-22T19:30:09.615Z,100948.16
2023-05-22T19:32:36.250Z,100947.00
2023-05-22T19:35:04.711Z,100951.78
2023-05-22T19:37:31.342Z,100950.16
2023-05-22T19:39:57.957Z,100952.38
2023-05-22T19:42:24.541Z,100947.44
2023-05-22T19:44:51.131Z,100950.47
2023-05-22T19:47:17.749Z,100959.00
2023-05-22T19:49:44.350Z,100958.47
2023-05-22T19:52:12.298Z,100959.63
2023-05-22T19:54:38.861Z,100956.31
2023-05-22T19:57:05.929Z,100956.81
2023-05-22T19:59:34.122Z,100959.88
2023-05-22T20:02:02.575Z,100959.94
2023-05-22T20:04:29.202Z,100953.63
2023-05-22T20:06:55.778Z,100952.00
2023-05-22T20:09:23.794Z,100952.88
2023-05-22T20:11:50.351Z,100955.66
2023-05-22T20:14:17.014Z,100968.66
2023-05-22T20:16:43.732Z,100964.03
2023-05-22T20:19:10.577Z,100959.38
2023-05-22T20:21:37.361Z,100959.44
2023-05-22T20:24:04.281Z,100960.31
2023-05-22T20:26:32.258Z,100965.03
2023-05-22T20:28:58.889Z,100965.06
2023-05-22T20:31:25.475Z,100960.44
2023-05-22T20:33:52.101Z,100962.16
2023-05-22T20:36:18.721Z,100967.72
2023-05-22T20:38:45.339Z,100965.19
2023-05-22T20:41:11.959Z,100968.78
2023-05-22T20:43:39.911Z,100956.94
2023-05-22T20:46:06.465Z,100955.94
2023-05-22T20:48:33.159Z,100954.03
2023-05-22T20:50:59.706Z,100951.34
2023-05-22T20:53:26.264Z,100958.53
2023-05-22T20:55:52.896Z,100962.13
2023-05-22T20:58:19.675Z,100962.78
2023-05-22T21:00:47.732Z,100960.69
2023-05-22T21:03:14.494Z,100970.00
2023-05-22T21:05:41.408Z,100968.75
2023-05-22T21:08:08.162Z,100965.78
2023-05-22T21:10:34.715Z,100968.13
2023-05-22T21:13:01.401Z,100968.75
2023-05-22T21:15:28.011Z,100968.34
2023-05-22T21:17:56.093Z,100967.94
2023-05-22T21:20:22.770Z,100979.31
2023-05-22T21:22:49.342Z,100979.94
2023-05-22T21:25:16.025Z,100964.09
2023-05-22T21:27:42.734Z,100964.50
2023-05-22T21:30:11.932Z,100970.44
2023-05-22T21:32:38.813Z,100965.38
2023-05-22T21:35:08.102Z,100966.63
2023-05-22T21:37:35.072Z,100967.25
2023-05-22T21:40:01.772Z,100966.00
2023-05-22T21:42:34.738Z,100964.53
2023-05-22T21:45:12.686Z,100966.84
2023-05-22T21:47:39.429Z,100965.56
2023-05-22T21:50:08.261Z,100960.50
2023-05-22T21:52:35.054Z,100966.41
2023-05-22T21:55:01.679Z,100963.25
2023-05-22T21:57:28.305Z,100964.50
2023-05-22T21:59:55.119Z,100961.97
2023-05-22T22:02:21.752Z,100952.03
2023-05-22T22:04:48.391Z,100952.25
2023-05-22T22:07:16.577Z,100956.88
2023-05-22T22:09:43.202Z,100956.03
2023-05-22T22:12:09.964Z,100962.59
2023-05-22T22:14:36.548Z,100973.78
2023-05-22T22:17:03.348Z,100967.66
2023-05-22T22:19:30.023Z,100969.56
2023-05-22T22:21:56.823Z,100966.16
2023-05-22T22:24:24.755Z,100967.03
2023-05-22T22:26:51.387Z,100956.47
2023-05-22T22:29:17.960Z,100954.97
2023-05-22T22:31:44.948Z,100944.22
2023-05-22T22:34:11.538Z,100939.97
2023-05-22T22:36:38.160Z,100940.81
2023-05-22T22:39:05.023Z,100935.75
2023-05-22T22:41:33.014Z,100931.94
2023-05-22T22:43:59.601Z,100925.41
2023-05-22T22:46:26.286Z,100923.09
2023-05-22T22:48:52.887Z,100926.69
2023-05-22T22:51:19.542Z,100925.63
2023-05-22T22:53:46.119Z,100913.56
2023-05-22T22:56:12.829Z,100916.97
2023-05-22T22:58:40.797Z,100920.34
2023-05-22T23:01:07.418Z,100912.94
2023-05-22T23:03:34.048Z,100914.44
2023-05-22T23:06:00.698Z,100911.69
2023-05-22T23:08:27.388Z,100910.63
2023-05-22T23:10:53.944Z,100908.72
2023-05-22T23:13:20.638Z,100903.88
2023-05-22T23:15:48.646Z,100901.97
2023-05-22T23:18:15.347Z,100906.63
2023-05-22T23:20:41.963Z,100899.22
2023-05-22T23:23:08.698Z,100897.53
2023-05-22T23:25:35.380Z,100894.78
2023-05-22T23:28:02.008Z,100893.09
2023-05-22T23:30:28.740Z,100884.25
2023-05-22T23:32:56.701Z,100888.03
2023-05-22T23:35:23.379Z,100885.72
2023-05-22T23:37:50.008Z,100877.47
2023-05-22T23:40:16.735Z,100871.34
2023-05-22T23:42:43.255Z,100870.94
2023-05-22T23:45:10.217Z,100863.94
2023-05-22T23:47:37.062Z,100869.00
2023-05-22T23:50:06.198Z,100858.47
2023-05-22T23:52:32.828Z,100852.56
2023-05-22T23:54:59.396Z,100848.09
2023-05-22T23:57:25.944Z,100846.84
2023-05-22T23:59:52.488Z,100841.78
